sensor_id;sensor_type;location;lat;lon;timestamp;P1;durP1;ratioP1;P2;durP2;ratioP2
31660;SDS011;18267;52.234;7.444;2023-03-16T00:02:07;8.05;;;2.70;;
31660;SDS011;18267;52.234;7.444;2023-03-16T00:04:34;10.60;;;2.55;;
31660;SDS011;18267;52.234;7.444;2023-03-16T00:07:01;5.55;;;2.75;;
31660;SDS011;18267;52.234;7.444;2023-03-16T00:09:31;5.10;;;2.60;;
31660;SDS011;18267;52.234;7.444;2023-03-16T00:11:57;7.38;;;3.15;;
31660;SDS011;18267;52.234;7.444;2023-03-16T00:14:25;8.00;;;3.63;;
31660;SDS011;18267;52.234;7.444;2023-03-16T00:16:51;11.23;;;3.33;;
31660;SDS011;18267;52.234;7.444;2023-03-16T00:19:17;10.18;;;3.38;;
31660;SDS011;18267;52.234;7.444;2023-03-16T00:21:42;6.38;;;2.67;;
31660;SDS011;18267;52.234;7.444;2023-03-16T00:24:08;7.35;;;3.30;;
31660;SDS011;18267;52.234;7.444;2023-03-16T00:26:34;8.00;;;3.22;;
31660;SDS011;18267;52.234;7.444;2023-03-16T00:28:59;8.07;;;2.95;;
31660;SDS011;18267;52.234;7.444;2023-03-16T00:31:25;6.20;;;2.70;;
31660;SDS011;18267;52.234;7.444;2023-03-16T00:33:51;8.55;;;2.78;;
31660;SDS011;18267;52.234;7.444;2023-03-16T00:36:16;7.32;;;2.50;;
31660;SDS011;18267;52.234;7.444;2023-03-16T00:38:42;12.85;;;2.50;;
31660;SDS011;18267;52.234;7.444;2023-03-16T00:41:13;7.07;;;2.40;;
31660;SDS011;18267;52.234;7.444;2023-03-16T00:43:40;7.13;;;2.33;;
31660;SDS011;18267;52.234;7.444;2023-03-16T00:46:09;9.60;;;2.60;;
31660;SDS011;18267;52.234;7.444;2023-03-16T00:48:41;4.40;;;2.30;;
31660;SDS011;18267;52.234;7.444;2023-03-16T00:51:08;8.52;;;2.53;;
31660;SDS011;18267;52.234;7.444;2023-03-16T00:53:37;6.22;;;2.10;;
31660;SDS011;18267;52.234;7.444;2023-03-16T00:56:04;7.68;;;2.03;;
31660;SDS011;18267;52.234;7.444;2023-03-16T00:58:31;5.30;;;2.40;;
31660;SDS011;18267;52.234;7.444;2023-03-16T01:01:01;4.38;;;1.95;;
31660;SDS011;18267;52.234;7.444;2023-03-16T01:03:28;4.50;;;2.33;;
31660;SDS011;18267;52.234;7.444;2023-03-16T01:05:54;4.60;;;2.30;;
31660;SDS011;18267;52.234;7.444;2023-03-16T01:08:23;8.00;;;2.90;;
31660;SDS011;18267;52.234;7.444;2023-03-16T01:10:51;4.90;;;2.15;;
31660;SDS011;18267;52.234;7.444;2023-03-16T01:13:18;6.72;;;2.40;;
31660;SDS011;18267;52.234;7.444;2023-03-16T01:15:44;8.73;;;3.17;;
31660;SDS011;18267;52.234;7.444;2023-03-16T01:18:10;10.32;;;2.58;;
31660;SDS011;18267;52.234;7.444;2023-03-16T01:20:38;4.32;;;2.88;;
31660;SDS011;18267;52.234;7.444;2023-03-16T01:23:05;8.13;;;2.38;;
31660;SDS011;18267;52.234;7.444;2023-03-16T01:25:30;7.75;;;2.88;;
31660;SDS011;18267;52.234;7.444;2023-03-16T01:27:56;13.30;;;3.17;;
31660;SDS011;18267;52.234;7.444;2023-03-16T01:30:22;9.25;;;2.58;;
31660;SDS011;18267;52.234;7.444;2023-03-16T01:32:48;12.57;;;2.60;;
31660;SDS011;18267;52.234;7.444;2023-03-16T01:35:13;6.18;;;2.53;;
31660;SDS011;18267;52.234;7.444;2023-03-16T01:37:40;6.30;;;2.30;;
31660;SDS011;18267;52.234;7.444;2023-03-16T01:40:07;9.55;;;2.53;;
31660;SDS011;18267;52.234;7.444;2023-03-16T01:42:40;9.20;;;2.72;;
31660;SDS011;18267;52.234;7.444;2023-03-16T01:48:14;7.88;;;2.53;;
31660;SDS011;18267;52.234;7.444;2023-03-16T01:50:40;5.30;;;3.08;;
31660;SDS011;18267;52.234;7.444;2023-03-16T01:53:06;8.45;;;3.75;;
31660;SDS011;18267;52.234;7.444;2023-03-16T01:55:33;7.35;;;2.90;;
31660;SDS011;18267;52.234;7.444;2023-03-16T01:57:58;5.00;;;2.85;;
31660;SDS011;18267;52.234;7.444;2023-03-16T02:00:24;12.18;;;3.28;;
31660;SDS011;18267;52.234;7.444;2023-03-16T02:02:56;12.02;;;3.55;;
31660;SDS011;18267;52.234;7.444;2023-03-16T02:05:37;7.18;;;3.35;;
31660;SDS011;18267;52.234;7.444;2023-03-16T02:08:07;7.05;;;3.15;;
31660;SDS011;18267;52.234;7.444;2023-03-16T02:10:36;8.65;;;2.88;;
31660;SDS011;18267;52.234;7.444;2023-03-16T02:13:02;3.75;;;2.30;;
31660;SDS011;18267;52.234;7.444;2023-03-16T02:15:28;6.40;;;2.72;;
31660;SDS011;18267;52.234;7.444;2023-03-16T02:17:54;6.50;;;3.13;;
31660;SDS011;18267;52.234;7.444;2023-03-16T02:23:17;7.40;;;3.00;;
31660;SDS011;18267;52.234;7.444;2023-03-16T02:31:09;8.05;;;3.53;;
31660;SDS011;18267;52.234;7.444;2023-03-16T02:33:34;12.90;;;3.92;;
31660;SDS011;18267;52.234;7.444;2023-03-16T02:36:00;11.20;;;3.72;;
31660;SDS011;18267;52.234;7.444;2023-03-16T02:38:26;7.00;;;2.97;;
31660;SDS011;18267;52.234;7.444;2023-03-16T02:40:54;5.30;;;2.60;;
31660;SDS011;18267;52.234;7.444;2023-03-16T02:43:30;8.82;;;3.45;;
31660;SDS011;18267;52.234;7.444;2023-03-16T02:45:59;16.17;;;3.85;;
31660;SDS011;18267;52.234;7.444;2023-03-16T02:48:32;8.98;;;3.80;;
31660;SDS011;18267;52.234;7.444;2023-03-16T02:51:15;9.70;;;3.20;;
31660;SDS011;18267;52.234;7.444;2023-03-16T02:53:40;8.13;;;3.03;;
31660;SDS011;18267;52.234;7.444;2023-03-16T02:56:06;9.10;;;3.20;;
31660;SDS011;18267;52.234;7.444;2023-03-16T02:58:32;9.27;;;3.05;;
31660;SDS011;18267;52.234;7.444;2023-03-16T03:00:58;8.38;;;2.35;;
31660;SDS011;18267;52.234;7.444;2023-03-16T03:03:24;5.40;;;3.15;;
31660;SDS011;18267;52.234;7.444;2023-03-16T03:05:49;11.70;;;2.78;;
31660;SDS011;18267;52.234;7.444;2023-03-16T03:08:15;5.38;;;2.78;;
31660;SDS011;18267;52.234;7.444;2023-03-16T03:10:42;5.97;;;3.20;;
31660;SDS011;18267;52.234;7.444;2023-03-16T03:13:08;5.53;;;3.45;;
31660;SDS011;18267;52.234;7.444;2023-03-16T03:15:34;16.23;;;3.08;;
31660;SDS011;18267;52.234;7.444;2023-03-16T03:18:00;6.65;;;3.05;;
31660;SDS011;18267;52.234;7.444;2023-03-16T03:20:25;5.53;;;2.70;;
31660;SDS011;18267;52.234;7.444;2023-03-16T03:22:51;8.43;;;3.08;;
31660;SDS011;18267;52.234;7.444;2023-03-16T03:25:17;7.38;;;2.50;;
31660;SDS011;18267;52.234;7.444;2023-03-16T03:27:44;7.95;;;2.47;;
31660;SDS011;18267;52.234;7.444;2023-03-16T03:30:12;6.55;;;2.50;;
31660;SDS011;18267;52.234;7.444;2023-03-16T03:32:40;9.35;;;3.10;;
31660;SDS011;18267;52.234;7.444;2023-03-16T03:35:06;6.35;;;2.92;;
31660;SDS011;18267;52.234;7.444;2023-03-16T03:37:32;8.73;;;3.22;;
31660;SDS011;18267;52.234;7.444;2023-03-16T03:39:58;10.32;;;3.25;;
31660;SDS011;18267;52.234;7.444;2023-03-16T03:42:24;6.85;;;3.55;;
31660;SDS011;18267;52.234;7.444;2023-03-16T03:44:50;9.77;;;2.85;;
31660;SDS011;18267;52.234;7.444;2023-03-16T03:47:16;10.07;;;2.65;;
31660;SDS011;18267;52.234;7.444;2023-03-16T03:49:45;11.15;;;3.03;;
31660;SDS011;18267;52.234;7.444;2023-03-16T03:52:10;12.55;;;3.20;;
31660;SDS011;18267;52.234;7.444;2023-03-16T03:54:36;10.30;;;2.97;;
31660;SDS011;18267;52.234;7.444;2023-03-16T03:57:02;10.65;;;3.10;;
31660;SDS011;18267;52.234;7.444;2023-03-16T03:59:28;7.93;;;3.80;;
31660;SDS011;18267;52.234;7.444;2023-03-16T04:01:55;6.68;;;3.55;;
31660;SDS011;18267;52.234;7.444;2023-03-16T04:04:21;10.43;;;3.40;;
31660;SDS011;18267;52.234;7.444;2023-03-16T04:06:47;14.73;;;3.28;;
31660;SDS011;18267;52.234;7.444;2023-03-16T04:09:15;6.40;;;3.10;;
31660;SDS011;18267;52.234;7.444;2023-03-16T04:11:41;11.70;;;3.60;;
31660;SDS011;18267;52.234;7.444;2023-03-16T04:14:06;8.48;;;3.08;;
31660;SDS011;18267;52.234;7.444;2023-03-16T04:16:32;9.43;;;2.45;;
31660;SDS011;18267;52.234;7.444;2023-03-16T04:18:58;8.27;;;3.50;;
31660;SDS011;18267;52.234;7.444;2023-03-16T04:21:23;7.07;;;3.20;;
31660;SDS011;18267;52.234;7.444;2023-03-16T04:23:49;9.70;;;2.88;;
31660;SDS011;18267;52.234;7.444;2023-03-16T04:26:19;8.25;;;3.15;;
31660;SDS011;18267;52.234;7.444;2023-03-16T04:28:45;4.00;;;2.20;;
31660;SDS011;18267;52.234;7.444;2023-03-16T04:31:11;10.35;;;2.53;;
31660;SDS011;18267;52.234;7.444;2023-03-16T04:33:39;6.68;;;2.17;;
31660;SDS011;18267;52.234;7.444;2023-03-16T04:36:06;6.95;;;2.13;;
31660;SDS011;18267;52.234;7.444;2023-03-16T04:38:33;7.50;;;2.38;;
31660;SDS011;18267;52.234;7.444;2023-03-16T04:40:59;5.95;;;2.13;;
31660;SDS011;18267;52.234;7.444;2023-03-16T04:43:25;5.57;;;2.90;;
31660;SDS011;18267;52.234;7.444;2023-03-16T04:45:51;8.52;;;2.85;;
31660;SDS011;18267;52.234;7.444;2023-03-16T04:48:17;9.43;;;2.72;;
31660;SDS011;18267;52.234;7.444;2023-03-16T04:50:43;6.18;;;3.05;;
31660;SDS011;18267;52.234;7.444;2023-03-16T04:53:08;9.75;;;3.08;;
31660;SDS011;18267;52.234;7.444;2023-03-16T04:55:34;13.35;;;3.80;;
31660;SDS011;18267;52.234;7.444;2023-03-16T04:57:59;14.50;;;3.35;;
31660;SDS011;18267;52.234;7.444;2023-03-16T05:00:25;10.63;;;2.85;;
31660;SDS011;18267;52.234;7.444;2023-03-16T05:02:52;8.35;;;3.13;;
31660;SDS011;18267;52.234;7.444;2023-03-16T05:05:17;7.88;;;3.17;;
31660;SDS011;18267;52.234;7.444;2023-03-16T05:07:43;8.00;;;2.35;;
31660;SDS011;18267;52.234;7.444;2023-03-16T05:10:10;14.10;;;2.92;;
31660;SDS011;18267;52.234;7.444;2023-03-16T05:12:37;9.85;;;2.63;;
31660;SDS011;18267;52.234;7.444;2023-03-16T05:15:03;7.68;;;2.63;;
31660;SDS011;18267;52.234;7.444;2023-03-16T05:17:29;4.18;;;1.83;;
31660;SDS011;18267;52.234;7.444;2023-03-16T05:19:55;6.07;;;2.50;;
31660;SDS011;18267;52.234;7.444;2023-03-16T05:22:21;8.27;;;2.10;;
31660;SDS011;18267;52.234;7.444;2023-03-16T05:24:47;4.35;;;2.70;;
31660;SDS011;18267;52.234;7.444;2023-03-16T05:27:14;7.65;;;2.30;;
31660;SDS011;18267;52.234;7.444;2023-03-16T05:29:39;5.68;;;2.15;;
31660;SDS011;18267;52.234;7.444;2023-03-16T05:32:09;6.85;;;2.45;;
31660;SDS011;18267;52.234;7.444;2023-03-16T05:34:36;6.65;;;2.30;;
31660;SDS011;18267;52.234;7.444;2023-03-16T05:37:01;3.17;;;1.67;;
31660;SDS011;18267;52.234;7.444;2023-03-16T05:39:27;3.10;;;1.83;;
31660;SDS011;18267;52.234;7.444;2023-03-16T05:41:55;3.92;;;2.08;;
31660;SDS011;18267;52.234;7.444;2023-03-16T05:44:21;10.30;;;2.80;;
31660;SDS011;18267;52.234;7.444;2023-03-16T05:46:46;3.03;;;1.60;;
31660;SDS011;18267;52.234;7.444;2023-03-16T05:49:12;8.50;;;2.17;;
31660;SDS011;18267;52.234;7.444;2023-03-16T05:51:38;5.60;;;1.85;;
31660;SDS011;18267;52.234;7.444;2023-03-16T05:54:03;6.20;;;2.20;;
31660;SDS011;18267;52.234;7.444;2023-03-16T05:56:29;3.78;;;2.00;;
31660;SDS011;18267;52.234;7.444;2023-03-16T05:58:55;3.92;;;1.95;;
31660;SDS011;18267;52.234;7.444;2023-03-16T06:01:21;4.00;;;2.13;;
31660;SDS011;18267;52.234;7.444;2023-03-16T06:03:47;4.07;;;1.48;;
31660;SDS011;18267;52.234;7.444;2023-03-16T06:06:17;3.88;;;1.30;;
31660;SDS011;18267;52.234;7.444;2023-03-16T06:08:45;5.07;;;2.10;;
31660;SDS011;18267;52.234;7.444;2023-03-16T06:11:11;3.17;;;1.45;;
31660;SDS011;18267;52.234;7.444;2023-03-16T06:13:37;4.53;;;2.03;;
31660;SDS011;18267;52.234;7.444;2023-03-16T06:16:04;5.53;;;1.42;;
31660;SDS011;18267;52.234;7.444;2023-03-16T06:18:33;4.35;;;2.03;;
31660;SDS011;18267;52.234;7.444;2023-03-16T06:20:59;7.10;;;2.22;;
31660;SDS011;18267;52.234;7.444;2023-03-16T06:23:25;1.80;;;1.38;;
31660;SDS011;18267;52.234;7.444;2023-03-16T06:25:50;2.53;;;1.40;;
31660;SDS011;18267;52.234;7.444;2023-03-16T06:28:19;1.55;;;1.25;;
31660;SDS011;18267;52.234;7.444;2023-03-16T06:30:46;5.57;;;2.17;;
31660;SDS011;18267;52.234;7.444;2023-03-16T06:33:11;4.25;;;1.52;;
31660;SDS011;18267;52.234;7.444;2023-03-16T06:35:37;4.72;;;1.73;;
31660;SDS011;18267;52.234;7.444;2023-03-16T06:38:03;7.53;;;1.90;;
31660;SDS011;18267;52.234;7.444;2023-03-16T06:40:29;7.97;;;2.13;;
31660;SDS011;18267;52.234;7.444;2023-03-16T06:42:56;6.43;;;1.58;;
31660;SDS011;18267;52.234;7.444;2023-03-16T06:45:22;1.98;;;1.35;;
31660;SDS011;18267;52.234;7.444;2023-03-16T06:47:49;5.75;;;1.73;;
31660;SDS011;18267;52.234;7.444;2023-03-16T06:50:15;4.55;;;1.65;;
31660;SDS011;18267;52.234;7.444;2023-03-16T06:52:41;7.63;;;2.03;;
31660;SDS011;18267;52.234;7.444;2023-03-16T06:55:06;4.05;;;1.50;;
31660;SDS011;18267;52.234;7.444;2023-03-16T06:57:32;5.45;;;1.85;;
31660;SDS011;18267;52.234;7.444;2023-03-16T06:59:58;5.00;;;1.65;;
31660;SDS011;18267;52.234;7.444;2023-03-16T07:02:23;2.70;;;1.70;;
31660;SDS011;18267;52.234;7.444;2023-03-16T07:04:49;3.03;;;1.30;;
31660;SDS011;18267;52.234;7.444;2023-03-16T07:07:15;3.00;;;1.63;;
31660;SDS011;18267;52.234;7.444;2023-03-16T07:09:41;2.72;;;1.73;;
31660;SDS011;18267;52.234;7.444;2023-03-16T07:12:07;5.97;;;1.67;;
31660;SDS011;18267;52.234;7.444;2023-03-16T07:14:33;2.92;;;1.60;;
31660;SDS011;18267;52.234;7.444;2023-03-16T07:16:59;5.20;;;1.80;;
31660;SDS011;18267;52.234;7.444;2023-03-16T07:19:26;2.28;;;1.38;;
31660;SDS011;18267;52.234;7.444;2023-03-16T07:21:52;2.65;;;1.30;;
31660;SDS011;18267;52.234;7.444;2023-03-16T07:24:20;2.53;;;1.58;;
31660;SDS011;18267;52.234;7.444;2023-03-16T07:26:47;3.78;;;1.75;;
31660;SDS011;18267;52.234;7.444;2023-03-16T07:29:14;2.97;;;2.03;;
31660;SDS011;18267;52.234;7.444;2023-03-16T07:31:41;4.28;;;1.25;;
31660;SDS011;18267;52.234;7.444;2023-03-16T07:34:07;3.10;;;1.40;;
31660;SDS011;18267;52.234;7.444;2023-03-16T07:36:33;3.78;;;1.65;;
31660;SDS011;18267;52.234;7.444;2023-03-16T07:38:59;3.40;;;1.98;;
31660;SDS011;18267;52.234;7.444;2023-03-16T07:41:25;4.05;;;1.83;;
31660;SDS011;18267;52.234;7.444;2023-03-16T07:43:51;6.40;;;1.98;;
31660;SDS011;18267;52.234;7.444;2023-03-16T07:46:17;4.28;;;1.80;;
31660;SDS011;18267;52.234;7.444;2023-03-16T07:48:43;4.80;;;1.80;;
31660;SDS011;18267;52.234;7.444;2023-03-16T07:51:09;3.30;;;1.88;;
31660;SDS011;18267;52.234;7.444;2023-03-16T07:53:36;4.38;;;1.90;;
31660;SDS011;18267;52.234;7.444;2023-03-16T07:56:02;2.33;;;1.75;;
31660;SDS011;18267;52.234;7.444;2023-03-16T07:58:28;3.45;;;1.67;;
31660;SDS011;18267;52.234;7.444;2023-03-16T08:00:55;4.43;;;1.70;;
31660;SDS011;18267;52.234;7.444;2023-03-16T08:03:22;5.40;;;1.95;;
31660;SDS011;18267;52.234;7.444;2023-03-16T08:05:52;4.03;;;1.83;;
31660;SDS011;18267;52.234;7.444;2023-03-16T08:08:19;3.30;;;2.05;;
31660;SDS011;18267;52.234;7.444;2023-03-16T08:10:46;5.53;;;2.40;;
31660;SDS011;18267;52.234;7.444;2023-03-16T08:13:13;3.97;;;1.98;;
31660;SDS011;18267;52.234;7.444;2023-03-16T08:15:39;6.47;;;2.03;;
31660;SDS011;18267;52.234;7.444;2023-03-16T08:18:04;5.82;;;2.50;;
31660;SDS011;18267;52.234;7.444;2023-03-16T08:20:31;6.60;;;2.15;;
31660;SDS011;18267;52.234;7.444;2023-03-16T08:22:58;5.32;;;2.35;;
31660;SDS011;18267;52.234;7.444;2023-03-16T08:25:23;3.17;;;1.95;;
31660;SDS011;18267;52.234;7.444;2023-03-16T08:27:49;13.48;;;2.45;;
31660;SDS011;18267;52.234;7.444;2023-03-16T08:30:17;2.53;;;2.03;;
31660;SDS011;18267;52.234;7.444;2023-03-16T08:32:42;3.13;;;2.50;;
31660;SDS011;18267;52.234;7.444;2023-03-16T08:35:09;4.93;;;2.30;;
31660;SDS011;18267;52.234;7.444;2023-03-16T08:37:37;3.10;;;2.15;;
31660;SDS011;18267;52.234;7.444;2023-03-16T08:40:05;4.40;;;2.35;;
31660;SDS011;18267;52.234;7.444;2023-03-16T08:42:34;7.38;;;2.80;;
31660;SDS011;18267;52.234;7.444;2023-03-16T08:45:01;8.75;;;3.00;;
31660;SDS011;18267;52.234;7.444;2023-03-16T08:47:33;7.85;;;2.33;;
31660;SDS011;18267;52.234;7.444;2023-03-16T08:49:59;4.18;;;2.38;;
31660;SDS011;18267;52.234;7.444;2023-03-16T08:52:26;3.75;;;2.25;;
31660;SDS011;18267;52.234;7.444;2023-03-16T08:54:51;4.53;;;2.75;;
31660;SDS011;18267;52.234;7.444;2023-03-16T08:57:17;5.95;;;2.78;;
31660;SDS011;18267;52.234;7.444;2023-03-16T08:59:42;4.47;;;3.03;;
31660;SDS011;18267;52.234;7.444;2023-03-16T09:02:10;5.20;;;2.97;;
31660;SDS011;18267;52.234;7.444;2023-03-16T09:04:37;7.78;;;3.13;;
31660;SDS011;18267;52.234;7.444;2023-03-16T09:07:05;5.88;;;2.65;;
31660;SDS011;18267;52.234;7.444;2023-03-16T09:09:32;11.68;;;3.08;;
31660;SDS011;18267;52.234;7.444;2023-03-16T09:11:59;6.30;;;2.55;;
31660;SDS011;18267;52.234;7.444;2023-03-16T09:14:25;5.20;;;2.90;;
31660;SDS011;18267;52.234;7.444;2023-03-16T09:16:51;5.38;;;2.83;;
31660;SDS011;18267;52.234;7.444;2023-03-16T09:19:17;3.85;;;2.72;;
31660;SDS011;18267;52.234;7.444;2023-03-16T09:21:43;5.85;;;3.03;;
31660;SDS011;18267;52.234;7.444;2023-03-16T09:24:09;5.63;;;2.63;;
31660;SDS011;18267;52.234;7.444;2023-03-16T09:26:35;5.32;;;2.58;;
31660;SDS011;18267;52.234;7.444;2023-03-16T09:29:01;3.28;;;2.50;;
31660;SDS011;18267;52.234;7.444;2023-03-16T09:31:28;6.63;;;2.63;;
31660;SDS011;18267;52.234;7.444;2023-03-16T09:33:54;6.22;;;2.60;;
31660;SDS011;18267;52.234;7.444;2023-03-16T09:36:20;9.35;;;2.67;;
31660;SDS011;18267;52.234;7.444;2023-03-16T09:38:45;6.30;;;3.05;;
31660;SDS011;18267;52.234;7.444;2023-03-16T09:41:15;6.70;;;2.78;;
31660;SDS011;18267;52.234;7.444;2023-03-16T09:46:53;6.05;;;2.58;;
31660;SDS011;18267;52.234;7.444;2023-03-16T09:49:22;4.53;;;2.38;;
31660;SDS011;18267;52.234;7.444;2023-03-16T09:51:57;4.03;;;2.70;;
31660;SDS011;18267;52.234;7.444;2023-03-16T09:57:30;4.18;;;2.90;;
31660;SDS011;18267;52.234;7.444;2023-03-16T10:05:33;4.38;;;2.70;;
31660;SDS011;18267;52.234;7.444;2023-03-16T10:15:57;4.97;;;2.53;;
31660;SDS011;18267;52.234;7.444;2023-03-16T10:18:28;5.38;;;2.70;;
31660;SDS011;18267;52.234;7.444;2023-03-16T10:20:59;6.18;;;2.38;;
31660;SDS011;18267;52.234;7.444;2023-03-16T10:23:26;7.15;;;2.40;;
31660;SDS011;18267;52.234;7.444;2023-03-16T10:25:55;3.15;;;2.28;;
31660;SDS011;18267;52.234;7.444;2023-03-16T10:28:25;6.72;;;2.30;;
31660;SDS011;18267;52.234;7.444;2023-03-16T10:30:57;7.38;;;2.17;;
31660;SDS011;18267;52.234;7.444;2023-03-16T10:33:25;6.93;;;2.20;;
31660;SDS011;18267;52.234;7.444;2023-03-16T10:36:01;2.97;;;2.13;;
31660;SDS011;18267;52.234;7.444;2023-03-16T10:44:22;3.42;;;2.28;;
31660;SDS011;18267;52.234;7.444;2023-03-16T10:46:57;4.78;;;2.30;;
31660;SDS011;18267;52.234;7.444;2023-03-16T10:51:56;4.47;;;2.30;;
31660;SDS011;18267;52.234;7.444;2023-03-16T10:54:30;3.10;;;2.10;;
31660;SDS011;18267;52.234;7.444;2023-03-16T10:56:59;2.85;;;1.88;;
31660;SDS011;18267;52.234;7.444;2023-03-16T10:59:38;4.95;;;2.20;;
31660;SDS011;18267;52.234;7.444;2023-03-16T11:02:13;2.83;;;1.60;;
31660;SDS011;18267;52.234;7.444;2023-03-16T11:04:41;2.05;;;1.85;;
31660;SDS011;18267;52.234;7.444;2023-03-16T11:07:07;2.50;;;1.65;;
31660;SDS011;18267;52.234;7.444;2023-03-16T11:09:39;3.45;;;1.67;;
31660;SDS011;18267;52.234;7.444;2023-03-16T11:12:18;2.53;;;1.67;;
31660;SDS011;18267;52.234;7.444;2023-03-16T11:14:50;2.53;;;1.50;;
31660;SDS011;18267;52.234;7.444;2023-03-16T11:17:33;5.78;;;1.88;;
31660;SDS011;18267;52.234;7.444;2023-03-16T11:20:04;2.70;;;1.65;;
31660;SDS011;18267;52.234;7.444;2023-03-16T11:22:38;2.08;;;1.63;;
31660;SDS011;18267;52.234;7.444;2023-03-16T11:27:43;4.30;;;2.10;;
31660;SDS011;18267;52.234;7.444;2023-03-16T11:30:18;4.07;;;1.70;;
31660;SDS011;18267;52.234;7.444;2023-03-16T11:32:55;4.30;;;1.88;;
31660;SDS011;18267;52.234;7.444;2023-03-16T11:38:25;4.43;;;1.77;;
31660;SDS011;18267;52.234;7.444;2023-03-16T11:41:22;5.43;;;2.42;;
31660;SDS011;18267;52.234;7.444;2023-03-16T11:52:24;4.95;;;2.22;;
31660;SDS011;18267;52.234;7.444;2023-03-16T11:55:23;5.13;;;2.47;;
31660;SDS011;18267;52.234;7.444;2023-03-16T12:06:18;2.17;;;1.38;;
31660;SDS011;18267;52.234;7.444;2023-03-16T12:11:41;4.68;;;2.03;;
31660;SDS011;18267;52.234;7.444;2023-03-16T12:16:52;4.03;;;2.10;;
31660;SDS011;18267;52.234;7.444;2023-03-16T12:19:46;5.63;;;1.50;;
31660;SDS011;18267;52.234;7.444;2023-03-16T12:24:58;5.97;;;1.55;;
31660;SDS011;18267;52.234;7.444;2023-03-16T12:27:33;3.00;;;1.40;;
31660;SDS011;18267;52.234;7.444;2023-03-16T12:43:38;1.75;;;1.25;;
31660;SDS011;18267;52.234;7.444;2023-03-16T12:46:12;2.05;;;1.38;;
31660;SDS011;18267;52.234;7.444;2023-03-16T12:48:51;5.03;;;1.63;;
31660;SDS011;18267;52.234;7.444;2023-03-16T12:51:34;2.72;;;1.50;;
31660;SDS011;18267;52.234;7.444;2023-03-16T12:54:02;4.45;;;1.88;;
31660;SDS011;18267;52.234;7.444;2023-03-16T12:56:33;5.90;;;1.65;;
31660;SDS011;18267;52.234;7.444;2023-03-16T12:59:13;3.65;;;1.38;;
31660;SDS011;18267;52.234;7.444;2023-03-16T13:01:44;3.47;;;1.42;;
31660;SDS011;18267;52.234;7.444;2023-03-16T13:07:08;5.28;;;1.70;;
31660;SDS011;18267;52.234;7.444;2023-03-16T13:09:42;3.10;;;1.42;;
31660;SDS011;18267;52.234;7.444;2023-03-16T13:12:22;2.72;;;1.50;;
31660;SDS011;18267;52.234;7.444;2023-03-16T13:14:52;3.22;;;1.60;;
31660;SDS011;18267;52.234;7.444;2023-03-16T13:17:23;1.88;;;1.38;;
31660;SDS011;18267;52.234;7.444;2023-03-16T13:22:29;3.40;;;1.50;;
31660;SDS011;18267;52.234;7.444;2023-03-16T13:25:12;2.15;;;1.40;;
31660;SDS011;18267;52.234;7.444;2023-03-16T13:27:55;2.33;;;1.88;;
31660;SDS011;18267;52.234;7.444;2023-03-16T13:30:24;3.92;;;1.83;;
31660;SDS011;18267;52.234;7.444;2023-03-16T13:32:53;2.55;;;1.63;;
31660;SDS011;18267;52.234;7.444;2023-03-16T13:35:24;2.92;;;1.42;;
31660;SDS011;18267;52.234;7.444;2023-03-16T13:40:29;1.35;;;1.25;;
31660;SDS011;18267;52.234;7.444;2023-03-16T13:42:56;5.35;;;1.40;;
31660;SDS011;18267;52.234;7.444;2023-03-16T13:45:26;4.82;;;1.50;;
31660;SDS011;18267;52.234;7.444;2023-03-16T13:47:57;10.13;;;1.80;;
31660;SDS011;18267;52.234;7.444;2023-03-16T13:50:25;3.90;;;1.30;;
31660;SDS011;18267;52.234;7.444;2023-03-16T13:52:55;6.07;;;1.38;;
31660;SDS011;18267;52.234;7.444;2023-03-16T13:55:25;1.48;;;1.20;;
31660;SDS011;18267;52.234;7.444;2023-03-16T13:57:56;1.90;;;1.38;;
31660;SDS011;18267;52.234;7.444;2023-03-16T14:00:25;2.08;;;1.35;;
31660;SDS011;18267;52.234;7.444;2023-03-16T14:02:56;3.33;;;1.30;;
31660;SDS011;18267;52.234;7.444;2023-03-16T14:07:53;2.60;;;1.63;;
31660;SDS011;18267;52.234;7.444;2023-03-16T14:10:20;5.25;;;1.63;;
31660;SDS011;18267;52.234;7.444;2023-03-16T14:12:52;4.38;;;1.27;;
31660;SDS011;18267;52.234;7.444;2023-03-16T14:15:19;1.90;;;1.50;;
31660;SDS011;18267;52.234;7.444;2023-03-16T14:17:46;6.38;;;1.70;;
31660;SDS011;18267;52.234;7.444;2023-03-16T14:20:21;4.28;;;1.70;;
31660;SDS011;18267;52.234;7.444;2023-03-16T14:22:50;3.58;;;1.25;;
31660;SDS011;18267;52.234;7.444;2023-03-16T14:25:23;1.83;;;1.30;;
31660;SDS011;18267;52.234;7.444;2023-03-16T14:27:58;4.78;;;2.38;;
31660;SDS011;18267;52.234;7.444;2023-03-16T14:30:27;2.28;;;1.27;;
31660;SDS011;18267;52.234;7.444;2023-03-16T14:33:04;5.32;;;1.30;;
31660;SDS011;18267;52.234;7.444;2023-03-16T14:35:40;5.68;;;1.40;;
31660;SDS011;18267;52.234;7.444;2023-03-16T14:41:09;2.63;;;1.20;;
31660;SDS011;18267;52.234;7.444;2023-03-16T14:44:04;6.05;;;1.30;;
31660;SDS011;18267;52.234;7.444;2023-03-16T14:46:38;2.13;;;1.40;;
31660;SDS011;18267;52.234;7.444;2023-03-16T14:52:22;4.05;;;1.27;;
31660;SDS011;18267;52.234;7.444;2023-03-16T14:54:51;2.38;;;1.10;;
31660;SDS011;18267;52.234;7.444;2023-03-16T14:57:19;1.40;;;1.02;;
31660;SDS011;18267;52.234;7.444;2023-03-16T14:59:45;5.55;;;1.20;;
31660;SDS011;18267;52.234;7.444;2023-03-16T15:02:14;2.53;;;1.70;;
31660;SDS011;18267;52.234;7.444;2023-03-16T15:04:43;4.80;;;1.50;;
31660;SDS011;18267;52.234;7.444;2023-03-16T15:07:29;2.22;;;1.35;;
31660;SDS011;18267;52.234;7.444;2023-03-16T15:12:39;2.08;;;1.55;;
31660;SDS011;18267;52.234;7.444;2023-03-16T15:15:13;5.22;;;1.40;;
31660;SDS011;18267;52.234;7.444;2023-03-16T15:17:46;1.65;;;1.25;;
31660;SDS011;18267;52.234;7.444;2023-03-16T15:20:24;1.45;;;1.20;;
31660;SDS011;18267;52.234;7.444;2023-03-16T15:22:55;5.90;;;1.52;;
31660;SDS011;18267;52.234;7.444;2023-03-16T15:28:09;5.10;;;1.48;;
31660;SDS011;18267;52.234;7.444;2023-03-16T15:30:48;3.80;;;1.25;;
31660;SDS011;18267;52.234;7.444;2023-03-16T15:33:26;4.50;;;1.35;;
31660;SDS011;18267;52.234;7.444;2023-03-16T15:35:52;2.13;;;1.20;;
31660;SDS011;18267;52.234;7.444;2023-03-16T15:38:21;2.05;;;1.15;;
31660;SDS011;18267;52.234;7.444;2023-03-16T15:40:52;2.10;;;1.23;;
31660;SDS011;18267;52.234;7.444;2023-03-16T15:43:19;7.38;;;1.02;;
31660;SDS011;18267;52.234;7.444;2023-03-16T15:45:46;8.13;;;1.50;;
31660;SDS011;18267;52.234;7.444;2023-03-16T15:48:12;3.60;;;1.35;;
31660;SDS011;18267;52.234;7.444;2023-03-16T15:50:43;1.42;;;1.33;;
31660;SDS011;18267;52.234;7.444;2023-03-16T15:53:23;2.10;;;1.33;;
31660;SDS011;18267;52.234;7.444;2023-03-16T15:56:14;1.77;;;1.10;;
31660;SDS011;18267;52.234;7.444;2023-03-16T15:58:42;3.22;;;1.48;;
31660;SDS011;18267;52.234;7.444;2023-03-16T16:01:16;3.60;;;1.05;;
31660;SDS011;18267;52.234;7.444;2023-03-16T16:03:48;2.63;;;1.35;;
31660;SDS011;18267;52.234;7.444;2023-03-16T16:06:23;1.30;;;1.17;;
31660;SDS011;18267;52.234;7.444;2023-03-16T16:09:05;4.18;;;1.10;;
31660;SDS011;18267;52.234;7.444;2023-03-16T16:11:31;1.75;;;1.27;;
31660;SDS011;18267;52.234;7.444;2023-03-16T16:13:58;8.85;;;1.35;;
31660;SDS011;18267;52.234;7.444;2023-03-16T16:16:25;2.38;;;1.17;;
31660;SDS011;18267;52.234;7.444;2023-03-16T16:18:55;6.90;;;1.42;;
31660;SDS011;18267;52.234;7.444;2023-03-16T16:21:22;6.22;;;1.00;;
31660;SDS011;18267;52.234;7.444;2023-03-16T16:23:51;4.88;;;1.08;;
31660;SDS011;18267;52.234;7.444;2023-03-16T16:26:25;2.25;;;1.02;;
31660;SDS011;18267;52.234;7.444;2023-03-16T16:28:56;1.83;;;1.00;;
31660;SDS011;18267;52.234;7.444;2023-03-16T16:31:27;1.75;;;1.17;;
31660;SDS011;18267;52.234;7.444;2023-03-16T16:33:54;2.53;;;1.15;;
31660;SDS011;18267;52.234;7.444;2023-03-16T16:36:21;1.48;;;1.17;;
31660;SDS011;18267;52.234;7.444;2023-03-16T16:38:47;5.25;;;1.38;;
31660;SDS011;18267;52.234;7.444;2023-03-16T16:41:20;1.88;;;1.27;;